createdAt,value
2022-10-22T00:00:53.149Z,0.00
2022-10-22T00:01:53.122Z,0.00
2022-10-22T00:02:53.394Z,0.00
2022-10-22T00:03:53.099Z,0.00
2022-10-22T00:04:53.090Z,0.00
2022-10-22T00:05:53.160Z,0.00
2022-10-22T00:06:53.068Z,0.00
2022-10-22T00:07:53.055Z,0.00
2022-10-22T00:08:53.161Z,0.00
2022-10-22T00:09:53.033Z,0.00
2022-10-22T00:10:53.122Z,0.00
2022-10-22T00:11:53.009Z,0.00
2022-10-22T00:12:52.999Z,0.00
2022-10-22T00:13:53.001Z,0.00
2022-10-22T00:14:52.977Z,0.00
2022-10-22T00:15:52.979Z,0.00
2022-10-22T00:16:53.044Z,0.00
2022-10-22T00:17:52.942Z,0.00
2022-10-22T00:18:52.933Z,0.00
2022-10-22T00:19:52.919Z,0.00
2022-10-22T00:20:52.913Z,0.00
2022-10-22T00:21:52.931Z,0.00
2022-10-22T00:22:52.945Z,0.00
2022-10-22T00:23:52.873Z,0.00
2022-10-22T00:24:52.865Z,0.00
2022-10-22T00:25:52.851Z,0.00
2022-10-22T00:26:52.842Z,0.00
2022-10-22T00:27:52.839Z,0.00
2022-10-22T00:28:52.887Z,0.00
2022-10-22T00:29:52.807Z,0.00
2022-10-22T00:30:52.796Z,0.00
2022-10-22T00:31:52.891Z,0.00
2022-10-22T00:32:52.809Z,0.00
2022-10-22T00:33:52.763Z,0.00
2022-10-22T00:34:52.826Z,0.00
2022-10-22T00:35:52.740Z,0.00
2022-10-22T00:36:52.731Z,0.00
2022-10-22T00:37:52.741Z,0.00
2022-10-22T00:38:52.872Z,0.00
2022-10-22T00:39:52.695Z,0.00
2022-10-22T00:40:52.765Z,0.00
2022-10-22T00:41:52.677Z,0.00
2022-10-22T00:42:52.665Z,0.00
2022-10-22T00:43:52.654Z,0.00
2022-10-22T00:44:52.652Z,0.00
2022-10-22T00:45:52.629Z,0.00
2022-10-22T00:46:52.696Z,0.00
2022-10-22T00:47:52.610Z,0.00
2022-10-22T00:48:52.598Z,0.00
2022-10-22T00:49:52.654Z,0.00
2022-10-22T00:50:52.593Z,0.00
2022-10-22T00:51:52.565Z,0.00
2022-10-22T00:52:52.616Z,0.00
2022-10-22T00:53:52.559Z,0.00
2022-10-22T00:54:52.533Z,0.00
2022-10-22T00:55:52.520Z,0.00
2022-10-22T00:56:52.521Z,0.00
2022-10-22T00:57:52.496Z,0.00
2022-10-22T00:58:52.550Z,0.00
2022-10-22T00:59:52.485Z,0.00
2022-10-22T01:00:52.515Z,0.00
2022-10-22T01:01:52.453Z,0.00
2022-10-22T01:02:52.444Z,0.00
2022-10-22T01:03:52.435Z,0.00
2022-10-22T01:04:52.513Z,0.00
2022-10-22T01:05:52.421Z,0.00
2022-10-22T01:06:52.403Z,0.00
2022-10-22T01:07:52.386Z,0.00
2022-10-22T01:08:52.404Z,0.00
2022-10-22T01:09:52.386Z,0.00
2022-10-22T01:10:52.414Z,0.00
2022-10-22T01:11:52.344Z,0.00
2022-10-22T01:12:52.335Z,0.00
2022-10-22T01:13:52.366Z,0.00
2022-10-22T01:14:52.321Z,0.00
2022-10-22T01:15:52.298Z,0.00
2022-10-22T01:16:52.496Z,0.00
2022-10-22T01:17:52.275Z,0.00
2022-10-22T01:18:52.268Z,0.00
2022-10-22T01:19:52.256Z,0.00
2022-10-22T01:20:52.247Z,0.00
2022-10-22T01:21:52.230Z,0.00
2022-10-22T01:22:52.332Z,0.00
2022-10-22T01:23:52.212Z,0.00
2022-10-22T01:24:52.198Z,0.00
2022-10-22T01:25:52.213Z,0.00
2022-10-22T01:26:52.188Z,0.00
2022-10-22T01:27:52.171Z,0.00
2022-10-22T01:28:52.231Z,0.00
2022-10-22T01:29:52.152Z,0.00
2022-10-22T01:30:52.132Z,0.00
2022-10-22T01:31:52.176Z,0.00
2022-10-22T01:32:52.118Z,0.00
2022-10-22T01:33:52.100Z,0.00
2022-10-22T01:34:52.149Z,0.00
2022-10-22T01:35:52.078Z,0.00
2022-10-22T01:36:52.077Z,0.00
2022-10-22T01:37:52.072Z,0.00
2022-10-22T01:38:52.043Z,0.00
2022-10-22T01:39:52.122Z,0.00
2022-10-22T01:40:52.021Z,0.00
2022-10-22T01:41:52.043Z,0.00
2022-10-22T01:42:52.008Z,0.00
2022-10-22T01:43:51.989Z,0.00
2022-10-22T01:44:51.980Z,0.00
2022-10-22T01:45:52.010Z,0.00
2022-10-22T01:46:51.952Z,0.00
2022-10-22T01:47:51.960Z,0.00
2022-10-22T01:48:51.937Z,0.00
2022-10-22T01:49:51.939Z,0.00
2022-10-22T01:50:51.910Z,0.00
2022-10-22T01:51:51.973Z,0.00
2022-10-22T01:52:51.888Z,0.00
2022-10-22T01:53:51.947Z,0.00
2022-10-22T01:54:51.896Z,0.00
2022-10-22T01:55:51.872Z,0.00
2022-10-22T01:56:51.859Z,0.00
2022-10-22T01:57:51.972Z,0.00
2022-10-22T01:58:51.828Z,0.00
2022-10-22T01:59:51.827Z,0.00
2022-10-22T02:00:51.852Z,0.00
2022-10-22T02:01:51.810Z,0.00
2022-10-22T02:02:51.792Z,0.00
2022-10-22T02:03:51.781Z,0.00
2022-10-22T02:04:51.755Z,0.00
2022-10-22T02:05:51.746Z,0.00
2022-10-22T02:06:51.733Z,0.00
2022-10-22T02:07:51.732Z,0.00
2022-10-22T02:08:51.762Z,0.00
2022-10-22T02:09:51.739Z,0.00
2022-10-22T02:10:51.690Z,0.00
2022-10-22T02:11:51.694Z,0.00
2022-10-22T02:12:51.667Z,0.00
2022-10-22T02:13:51.678Z,0.00
2022-10-22T02:14:51.643Z,0.00
2022-10-22T02:15:51.717Z,0.00
2022-10-22T02:16:51.632Z,0.00
2022-10-22T02:17:51.608Z,0.00
2022-10-22T02:18:51.597Z,0.00
2022-10-22T02:19:51.587Z,0.00
2022-10-22T02:20:51.577Z,0.00
2022-10-22T02:21:51.627Z,0.00
2022-10-22T02:22:51.585Z,0.00
2022-10-22T02:23:51.552Z,0.00
2022-10-22T02:24:51.531Z,0.00
2022-10-22T02:25:51.519Z,0.00
2022-10-22T02:26:51.510Z,0.00
2022-10-22T02:27:51.551Z,0.00
2022-10-22T02:28:51.488Z,0.00
2022-10-22T02:29:51.510Z,0.00
2022-10-22T02:30:51.464Z,0.00
2022-10-22T02:31:51.451Z,0.00
2022-10-22T02:32:51.443Z,0.00
2022-10-22T02:33:51.502Z,0.00
2022-10-22T02:34:51.417Z,0.00
2022-10-22T02:35:51.419Z,0.00
2022-10-22T02:36:51.399Z,0.00
2022-10-22T02:37:51.383Z,0.00
2022-10-22T02:38:51.378Z,0.00
2022-10-22T02:39:51.436Z,0.00
2022-10-22T02:40:51.352Z,0.00
2022-10-22T02:41:51.349Z,0.00
2022-10-22T02:42:51.334Z,0.00
2022-10-22T02:43:51.315Z,0.00
2022-10-22T02:44:51.310Z,0.00
2022-10-22T02:45:51.323Z,0.00
2022-10-22T02:46:51.297Z,0.00
2022-10-22T02:47:51.272Z,0.00
2022-10-22T02:48:51.269Z,0.00
2022-10-22T02:49:51.251Z,0.00
2022-10-22T02:50:51.240Z,0.00
2022-10-22T02:51:51.297Z,0.00
2022-10-22T02:52:51.218Z,0.00
2022-10-22T02:53:51.205Z,0.00
2022-10-22T02:54:51.196Z,0.00
2022-10-22T02:55:51.183Z,0.00
2022-10-22T02:56:51.174Z,0.00
2022-10-22T02:57:51.314Z,0.00
2022-10-22T02:58:51.150Z,0.00
2022-10-22T02:59:51.137Z,0.00
2022-10-22T03:00:51.232Z,0.00
2022-10-22T03:01:51.134Z,0.00
2022-10-22T03:02:51.109Z,0.00
2022-10-22T03:03:51.173Z,0.00
2022-10-22T03:04:51.082Z,0.00
2022-10-22T03:05:51.070Z,0.00
2022-10-22T03:06:51.062Z,0.00
2022-10-22T03:07:51.059Z,0.00
2022-10-22T03:08:51.079Z,0.00
2022-10-22T03:09:51.106Z,0.00
2022-10-22T03:10:51.019Z,0.00
2022-10-22T03:11:51.005Z,0.00
2022-10-22T03:12:50.996Z,0.00
2022-10-22T03:13:50.997Z,0.00
2022-10-22T03:14:50.976Z,0.00
2022-10-22T03:15:51.038Z,0.00
2022-10-22T03:16:50.954Z,0.00
2022-10-22T03:17:50.961Z,0.00
2022-10-22T03:18:50.934Z,0.00
2022-10-22T03:19:50.920Z,0.00
2022-10-22T03:20:50.912Z,0.00
2022-10-22T03:21:51.008Z,0.00
2022-10-22T03:22:50.893Z,0.00
2022-10-22T03:23:50.880Z,0.00
2022-10-22T03:24:50.871Z,0.00
2022-10-22T03:25:50.913Z,0.00
2022-10-22T03:26:50.861Z,0.00
2022-10-22T03:27:50.902Z,0.00
2022-10-22T03:28:50.827Z,0.00
2022-10-22T03:29:50.818Z,0.00
2022-10-22T03:30:50.802Z,0.00
2022-10-22T03:31:50.797Z,0.00
2022-10-22T03:32:50.792Z,0.00
2022-10-22T03:33:50.796Z,0.00
2022-10-22T03:34:50.819Z,0.00
2022-10-22T03:35:50.751Z,0.00
2022-10-22T03:36:50.739Z,0.00
2022-10-22T03:37:50.724Z,0.00
2022-10-22T03:38:50.727Z,0.00
2022-10-22T03:39:50.753Z,0.00
2022-10-22T03:40:50.705Z,0.00
2022-10-22T03:41:50.686Z,0.00
2022-10-22T03:42:50.671Z,0.00
2022-10-22T03:43:50.660Z,0.00
2022-10-22T03:44:50.651Z,0.00
2022-10-22T03:45:50.725Z,0.00
2022-10-22T03:46:50.733Z,0.00
2022-10-22T03:47:50.616Z,0.00
2022-10-22T03:48:50.608Z,0.00
2022-10-22T03:49:50.612Z,0.00
2022-10-22T03:50:50.586Z,0.00
2022-10-22T03:51:50.658Z,0.00
2022-10-22T03:52:50.573Z,0.00
2022-10-22T03:53:50.549Z,0.00
2022-10-22T03:54:50.539Z,0.00
2022-10-22T03:55:50.527Z,0.00
2022-10-22T03:56:50.519Z,0.00
2022-10-22T03:57:50.587Z,0.00
2022-10-22T03:58:50.514Z,0.00
2022-10-22T03:59:50.484Z,0.00
2022-10-22T04:00:50.555Z,0.00
2022-10-22T04:01:50.461Z,0.00
2022-10-22T04:02:50.453Z,0.00
2022-10-22T04:03:50.490Z,0.00
2022-10-22T04:04:50.441Z,0.00
2022-10-22T04:05:50.447Z,0.00
2022-10-22T04:06:50.412Z,0.00
2022-10-22T04:07:50.398Z,0.00
2022-10-22T04:08:50.459Z,0.00
2022-10-22T04:09:50.425Z,0.00
2022-10-22T04:10:50.379Z,0.00
2022-10-22T04:11:50.353Z,0.00
2022-10-22T04:12:50.345Z,0.00
2022-10-22T04:13:50.348Z,0.00
2022-10-22T04:14:50.322Z,0.00
2022-10-22T04:15:50.382Z,0.00
2022-10-22T04:16:50.311Z,0.00
2022-10-22T04:17:50.289Z,0.00
2022-10-22T04:18:50.282Z,0.00
2022-10-22T04:19:50.265Z,0.00
2022-10-22T04:20:50.258Z,0.00
2022-10-22T04:21:50.310Z,0.00
2022-10-22T04:22:50.246Z,0.00
2022-10-22T04:23:50.232Z,0.00
2022-10-22T04:25:50.205Z,0.00
2022-10-22T04:26:50.195Z,0.00
2022-10-22T04:27:50.240Z,0.00
2022-10-22T04:28:50.279Z,0.00
2022-10-22T04:29:50.158Z,0.00
2022-10-22T04:30:50.149Z,0.00
2022-10-22T04:31:50.135Z,0.00
2022-10-22T04:32:50.126Z,0.00
2022-10-22T04:33:50.178Z,0.00
2022-10-22T04:34:50.120Z,0.00
2022-10-22T04:35:50.101Z,0.00
2022-10-22T04:36:50.153Z,0.00
2022-10-22T04:37:50.092Z,0.00
2022-10-22T04:38:50.074Z,0.00
2022-10-22T04:39:50.150Z,0.00
2022-10-22T04:40:50.041Z,0.00
2022-10-22T04:41:50.027Z,0.00
2022-10-22T04:42:50.025Z,0.00
2022-10-22T04:43:50.078Z,0.00
2022-10-22T04:44:50.010Z,0.00
2022-10-22T04:45:50.034Z,0.00
2022-10-22T04:46:49.978Z,0.00
2022-10-22T04:47:49.966Z,0.00
2022-10-22T04:48:49.955Z,0.00
2022-10-22T04:49:50.026Z,0.00
2022-10-22T04:50:49.944Z,0.00
2022-10-22T04:51:49.921Z,0.00
2022-10-22T04:52:49.910Z,0.00
2022-10-22T04:53:49.915Z,0.00
2022-10-22T04:54:49.889Z,0.00
2022-10-22T04:55:49.970Z,0.00
2022-10-22T04:56:49.876Z,0.00
2022-10-22T04:57:49.896Z,0.00
2022-10-22T04:58:49.843Z,0.00
2022-10-22T04:59:49.831Z,0.00
2022-10-22T05:00:49.841Z,0.00
2022-10-22T05:01:49.912Z,0.00
2022-10-22T05:02:49.801Z,0.00
2022-10-22T05:03:49.789Z,0.00
2022-10-22T05:04:49.778Z,0.00
2022-10-22T05:05:49.768Z,0.00
2022-10-22T05:06:49.771Z,0.00
2022-10-22T05:07:49.826Z,0.00
2022-10-22T05:08:49.792Z,0.00
2022-10-22T05:09:49.756Z,0.00
2022-10-22T05:10:49.713Z,0.00
2022-10-22T05:11:49.701Z,0.00
2022-10-22T05:12:49.694Z,0.00
2022-10-22T05:13:49.724Z,0.00
2022-10-22T05:14:49.672Z,0.00
2022-10-22T05:15:49.670Z,0.00
2022-10-22T05:16:49.654Z,0.00
2022-10-22T05:17:49.636Z,0.00
2022-10-22T05:18:49.629Z,0.00
2022-10-22T05:19:49.699Z,0.00
2022-10-22T05:20:49.619Z,0.00
2022-10-22T05:21:49.602Z,0.00
2022-10-22T05:22:49.588Z,0.00
2022-10-22T05:23:49.574Z,0.00
2022-10-22T05:24:49.562Z,0.00
2022-10-22T05:25:49.622Z,0.00
2022-10-22T05:26:49.583Z,0.00
2022-10-22T05:27:49.528Z,4.00
2022-10-22T05:28:49.519Z,4.00
2022-10-22T05:29:49.508Z,4.00
2022-10-22T05:30:49.497Z,4.00
2022-10-22T05:31:49.548Z,4.00
2022-10-22T05:32:49.492Z,8.00
2022-10-22T05:33:49.462Z,8.00
2022-10-22T05:34:49.454Z,12.00
2022-10-22T05:35:49.442Z,16.00
2022-10-22T05:36:49.433Z,16.00
2022-10-22T05:37:49.572Z,20.00
2022-10-22T05:38:49.427Z,20.00
2022-10-22T05:39:57.571Z,28.00
2022-10-22T05:40:50.401Z,32.00
2022-10-22T05:41:49.400Z,36.00
2022-10-22T05:42:49.368Z,40.00
2022-10-22T05:43:49.445Z,44.00
2022-10-22T05:44:49.350Z,52.00
2022-10-22T05:45:49.333Z,56.00
2022-10-22T05:46:49.334Z,60.00
2022-10-22T05:47:49.317Z,68.00
2022-10-22T05:48:49.303Z,76.00
2022-10-22T05:49:49.321Z,80.00
2022-10-22T05:50:49.280Z,84.00
2022-10-22T05:51:49.267Z,92.00
2022-10-22T05:52:49.269Z,104.00
2022-10-22T05:53:49.253Z,108.00
2022-10-22T05:54:49.235Z,112.00
2022-10-22T05:55:49.249Z,124.00
2022-10-22T05:56:49.219Z,136.00
2022-10-22T05:57:49.220Z,148.00
2022-10-22T05:58:49.256Z,160.00
2022-10-22T05:59:49.179Z,172.00
2022-10-22T06:00:49.171Z,180.00
2022-10-22T06:01:49.238Z,188.00
2022-10-22T06:02:49.160Z,204.00
2022-10-22T06:03:49.141Z,224.00
2022-10-22T06:04:49.127Z,240.00
2022-10-22T06:05:49.126Z,252.00
2022-10-22T06:06:49.116Z,264.00
2022-10-22T06:07:49.145Z,276.00
2022-10-22T06:08:49.142Z,296.00
2022-10-22T06:09:49.314Z,320.00
2022-10-22T06:10:49.059Z,348.00
2022-10-22T06:11:49.049Z,376.00
2022-10-22T06:12:49.141Z,408.00
2022-10-22T06:13:49.060Z,448.00
2022-10-22T06:14:49.022Z,496.00
2022-10-22T06:15:49.025Z,568.00
2022-10-22T06:16:49.008Z,652.00
2022-10-22T06:17:48.985Z,724.00
2022-10-22T06:18:49.042Z,760.00
2022-10-22T06:19:48.966Z,760.00
2022-10-22T06:20:48.955Z,740.00
2022-10-22T06:21:49.038Z,724.00
2022-10-22T06:22:48.931Z,696.00
2022-10-22T06:23:48.919Z,664.00
2022-10-22T06:24:48.908Z,620.00
2022-10-22T06:25:48.898Z,596.00
2022-10-22T06:26:48.975Z,576.00
2022-10-22T06:27:48.877Z,576.00
2022-10-22T06:28:48.863Z,596.00
2022-10-22T06:29:48.873Z,620.00
2022-10-22T06:30:48.843Z,636.00
2022-10-22T06:31:48.834Z,652.00
2022-10-22T06:32:48.912Z,668.00
2022-10-22T06:33:48.818Z,680.00
2022-10-22T06:34:48.798Z,688.00
2022-10-22T06:35:48.789Z,672.00
2022-10-22T06:36:48.796Z,640.00
2022-10-22T06:37:48.770Z,600.00
2022-10-22T06:38:48.806Z,564.00
2022-10-22T06:39:48.746Z,532.00
2022-10-22T06:40:48.735Z,508.00
2022-10-22T06:41:48.724Z,488.00
2022-10-22T06:42:48.723Z,476.00
2022-10-22T06:43:48.706Z,472.00
2022-10-22T06:44:48.769Z,484.00
2022-10-22T06:45:48.713Z,504.00
2022-10-22T06:46:48.669Z,532.00
2022-10-22T06:47:48.671Z,560.00
2022-10-22T06:48:48.662Z,576.00
2022-10-22T06:49:48.638Z,584.00
2022-10-22T06:50:48.751Z,584.00
2022-10-22T06:51:48.616Z,572.00
2022-10-22T06:52:48.604Z,564.00
2022-10-22T06:53:48.608Z,564.00
2022-10-22T06:54:48.582Z,580.00
2022-10-22T06:55:48.574Z,620.00
2022-10-22T06:56:48.653Z,672.00
2022-10-22T06:57:48.552Z,732.00
2022-10-22T06:58:48.544Z,808.00
2022-10-22T06:59:48.631Z,884.00
2022-10-22T07:00:48.533Z,956.00
2022-10-22T07:01:48.637Z,1020.00
2022-10-22T07:02:48.547Z,1084.00
2022-10-22T07:03:48.486Z,1148.00
2022-10-22T07:04:48.474Z,1240.00
2022-10-22T07:05:48.488Z,1344.00
2022-10-22T07:06:48.453Z,1452.00
2022-10-22T07:07:48.443Z,1544.00
2022-10-22T07:08:48.530Z,1596.00
2022-10-22T07:09:48.567Z,1628.00
2022-10-22T07:10:48.408Z,1632.00
2022-10-22T07:11:48.413Z,1556.00
2022-10-22T07:12:48.395Z,1412.00
2022-10-22T07:13:48.401Z,1244.00
2022-10-22T07:14:48.479Z,1112.00
2022-10-22T07:15:48.391Z,1036.00
2022-10-22T07:16:48.343Z,1028.00
2022-10-22T07:17:48.357Z,1084.00
2022-10-22T07:18:48.323Z,1188.00
2022-10-22T07:19:51.123Z,1308.00
2022-10-22T07:20:48.387Z,1440.00
2022-10-22T07:21:48.301Z,1568.00
2022-10-22T07:22:48.278Z,1708.00
2022-10-22T07:23:48.269Z,1836.00
2022-10-22T07:24:48.258Z,1948.00
2022-10-22T07:25:48.285Z,2044.00
2022-10-22T07:26:48.281Z,2152.00
2022-10-22T07:27:48.227Z,2268.00
2022-10-22T07:28:48.216Z,2356.00
2022-10-22T07:29:48.205Z,2408.00
2022-10-22T07:30:48.192Z,2436.00
2022-10-22T07:31:48.183Z,2468.00
2022-10-22T07:32:48.252Z,2476.00
2022-10-22T07:33:48.181Z,2476.00
2022-10-22T07:34:48.148Z,2480.00
2022-10-22T07:35:48.140Z,2460.00
2022-10-22T07:36:48.138Z,2404.00
2022-10-22T07:37:48.117Z,2312.00
2022-10-22T07:38:48.189Z,2172.00
2022-10-22T07:39:48.096Z,2048.00
2022-10-22T07:40:48.089Z,1940.00
2022-10-22T07:41:48.075Z,1860.00
2022-10-22T07:42:48.073Z,1832.00
2022-10-22T07:43:48.064Z,1856.00
2022-10-22T07:44:48.138Z,1912.00
2022-10-22T07:45:48.043Z,1984.00
2022-10-22T07:46:48.998Z,2080.00
2022-10-22T07:47:48.009Z,2244.00
2022-10-22T07:48:47.998Z,2452.00
2022-10-22T07:49:48.009Z,2676.00
2022-10-22T07:50:48.084Z,2900.00
2022-10-22T07:51:47.966Z,3120.00
2022-10-22T07:52:47.956Z,3360.00
2022-10-22T07:53:47.942Z,3644.00
2022-10-22T07:54:47.932Z,3964.00
2022-10-22T07:55:47.923Z,4220.00
2022-10-22T07:56:48.012Z,4356.00
2022-10-22T07:57:47.914Z,4412.00
2022-10-22T07:58:47.991Z,4460.00
2022-10-22T07:59:47.878Z,4472.00
2022-10-22T08:00:47.869Z,4480.00
2022-10-22T08:01:47.935Z,4448.00
2022-10-22T08:02:47.926Z,4396.00
2022-10-22T08:03:47.838Z,4368.00
2022-10-22T08:04:47.824Z,4436.00
2022-10-22T08:05:47.836Z,4624.00
2022-10-22T08:06:48.093Z,4960.00
2022-10-22T08:07:47.803Z,5336.00
2022-10-22T08:08:47.887Z,5496.00
2022-10-22T08:09:47.771Z,5500.00
2022-10-22T08:10:47.756Z,5576.00
2022-10-22T08:11:47.748Z,5632.00
2022-10-22T08:12:47.735Z,5624.00
2022-10-22T08:13:47.737Z,5940.00
2022-10-22T08:14:47.784Z,6380.00
2022-10-22T08:15:48.394Z,6744.00
2022-10-22T08:16:47.692Z,7040.00
2022-10-22T08:17:47.683Z,7336.00
2022-10-22T08:18:47.681Z,7772.00
2022-10-22T08:19:47.662Z,8440.00
2022-10-22T08:20:47.741Z,9288.00
2022-10-22T08:21:47.658Z,10216.00
2022-10-22T08:22:47.627Z,11188.00
2022-10-22T08:23:47.622Z,12072.00
2022-10-22T08:24:47.619Z,12428.00
2022-10-22T08:25:47.595Z,12260.00
2022-10-22T08:26:47.652Z,11952.00
2022-10-22T08:27:47.578Z,11548.00
2022-10-22T08:28:47.575Z,11300.00
2022-10-22T08:29:47.555Z,11288.00
2022-10-22T08:30:47.546Z,11600.00
2022-10-22T08:31:47.551Z,12356.00
2022-10-22T08:32:49.377Z,13400.00
2022-10-22T08:33:47.509Z,14156.00
2022-10-22T08:34:47.495Z,14792.00
2022-10-22T08:35:47.486Z,15064.00
2022-10-22T08:36:47.478Z,15448.00
2022-10-22T08:37:47.496Z,16616.00
2022-10-22T08:38:47.500Z,17440.00
2022-10-22T08:39:47.442Z,18080.00
2022-10-22T08:41:47.421Z,17856.00
2022-10-22T08:42:47.421Z,18144.00
2022-10-22T08:43:47.401Z,18784.00
2022-10-22T08:44:47.463Z,19840.00
2022-10-22T08:45:47.377Z,21504.00
2022-10-22T08:46:47.383Z,23456.00
2022-10-22T08:47:47.356Z,24512.00
2022-10-22T08:48:47.344Z,25856.00
2022-10-22T08:49:47.335Z,24352.00
2022-10-22T08:50:47.411Z,24320.00
2022-10-22T08:51:47.311Z,25024.00
2022-10-22T08:52:47.309Z,29760.00
2022-10-22T08:53:47.311Z,30304.00
2022-10-22T08:54:47.278Z,30336.00
2022-10-22T08:55:47.282Z,41760.00
2022-10-22T08:56:47.297Z,45792.00
2022-10-22T08:57:49.924Z,49824.00
2022-10-22T08:58:48.232Z,79328.00
2022-10-22T08:59:47.225Z,87776.00
2022-10-22T09:00:47.211Z,78016.00
2022-10-22T09:01:47.215Z,107392.00
2022-10-22T09:02:47.213Z,105024.00
2022-10-22T09:03:47.185Z,107680.00
2022-10-22T09:04:47.171Z,101312.00
2022-10-22T09:05:47.244Z,56608.00
2022-10-22T09:06:49.542Z,57088.00
2022-10-22T09:07:47.141Z,45696.00
2022-10-22T09:08:47.238Z,47616.00
2022-10-22T09:09:47.141Z,42080.00
2022-10-22T09:10:47.107Z,64096.00
2022-10-22T09:11:47.111Z,118560.00
2022-10-22T09:12:47.084Z,69568.00
2022-10-22T09:13:47.073Z,43104.00
2022-10-22T09:14:47.119Z,103008.00
2022-10-22T09:15:47.451Z,96192.00
2022-10-22T09:16:47.049Z,87584.00
2022-10-22T09:17:47.028Z,100320.00
2022-10-22T09:18:47.015Z,105312.00
2022-10-22T09:19:47.006Z,101056.00
2022-10-22T09:20:47.007Z,95168.00
2022-10-22T09:21:47.047Z,105984.00
2022-10-22T09:22:46.971Z,85312.00
2022-10-22T09:23:46.961Z,111008.00
2022-10-22T09:24:47.056Z,112096.00
2022-10-22T09:25:46.978Z,117056.00
2022-10-22T09:26:46.926Z,100512.00
2022-10-22T09:27:47.008Z,124448.00
2022-10-22T09:28:46.905Z,119584.00
2022-10-22T09:29:46.901Z,103488.00
2022-10-22T09:30:46.926Z,118016.00
2022-10-22T09:31:46.874Z,102592.00
2022-10-22T09:32:46.863Z,51232.00
2022-10-22T09:33:46.940Z,48096.00
2022-10-22T09:34:46.842Z,41440.00
2022-10-22T09:35:46.831Z,48800.00
2022-10-22T09:36:46.818Z,57408.00
2022-10-22T09:37:46.811Z,85088.00
2022-10-22T09:38:46.797Z,43040.00
2022-10-22T09:39:46.888Z,52864.00
2022-10-22T09:40:46.775Z,35264.00
2022-10-22T09:41:46.794Z,64224.00
2022-10-22T09:42:46.758Z,39424.00
2022-10-22T09:43:46.745Z,111264.00
2022-10-22T09:44:48.461Z,60864.00
2022-10-22T09:45:46.799Z,88640.00
2022-10-22T09:46:46.710Z,91904.00
2022-10-22T09:48:02.558Z,72832.00
2022-10-22T09:48:47.698Z,62784.00
2022-10-22T09:49:46.678Z,55232.00
2022-10-22T09:50:46.669Z,53056.00
2022-10-22T09:51:46.723Z,46624.00
2022-10-22T09:52:46.647Z,43104.00
2022-10-22T09:53:46.635Z,43680.00
2022-10-22T09:54:46.632Z,49408.00
2022-10-22T09:55:46.670Z,46336.00
2022-10-22T09:56:46.614Z,50688.00
2022-10-22T09:57:47.007Z,41664.00
2022-10-22T09:58:46.582Z,39392.00
2022-10-22T09:59:46.571Z,34816.00
2022-10-22T10:00:46.569Z,35040.00
2022-10-22T10:01:46.567Z,33216.00
2022-10-22T10:02:46.595Z,35520.00
2022-10-22T10:03:46.578Z,37408.00
2022-10-22T10:04:46.529Z,34112.00
2022-10-22T10:05:46.505Z,32704.00
2022-10-22T10:06:46.495Z,30304.00
2022-10-22T10:07:46.491Z,28928.00
2022-10-22T10:08:46.541Z,27648.00
2022-10-22T10:09:46.505Z,27776.00
2022-10-22T10:10:46.470Z,26464.00
2022-10-22T10:11:46.441Z,27264.00
2022-10-22T10:13:46.443Z,26368.00
2022-10-22T10:14:46.408Z,27200.00
2022-10-22T10:15:46.468Z,27008.00
2022-10-22T10:16:46.396Z,30208.00
2022-10-22T10:17:46.376Z,31712.00
2022-10-22T10:18:46.365Z,33184.00
2022-10-22T10:19:46.432Z,36576.00
2022-10-22T10:20:46.351Z,36096.00
2022-10-22T10:21:46.403Z,38336.00
2022-10-22T10:22:46.333Z,35968.00
2022-10-22T10:23:46.377Z,33408.00
2022-10-22T10:24:46.301Z,34304.00
2022-10-22T10:25:46.347Z,30784.00
2022-10-22T10:26:46.279Z,27488.00
2022-10-22T10:27:46.319Z,27680.00
2022-10-22T10:28:46.267Z,29824.00
2022-10-22T10:29:46.393Z,30400.00
2022-10-22T10:30:46.241Z,36704.00
2022-10-22T10:31:46.293Z,49440.00
2022-10-22T10:32:46.218Z,66048.00
2022-10-22T10:33:46.250Z,57472.00
2022-10-22T10:34:46.191Z,63648.00
2022-10-22T10:35:46.252Z,72640.00
2022-10-22T10:36:46.184Z,78496.00
2022-10-22T10:37:46.254Z,74208.00
2022-10-22T10:38:46.159Z,70080.00
2022-10-22T10:39:46.170Z,49632.00
2022-10-22T10:40:46.126Z,51552.00
2022-10-22T10:41:46.237Z,37056.00
2022-10-22T10:42:46.114Z,37056.00
2022-10-22T10:43:46.091Z,35136.00
2022-10-22T10:44:46.098Z,67008.00
2022-10-22T10:45:46.087Z,61920.00
2022-10-22T10:46:46.062Z,53632.00
2022-10-22T10:47:46.046Z,48768.00
2022-10-22T10:48:46.039Z,50048.00
2022-10-22T10:49:46.037Z,57632.00
2022-10-22T10:50:46.019Z,59008.00
2022-10-22T10:51:46.005Z,57664.00
2022-10-22T10:52:45.998Z,65056.00
2022-10-22T10:53:45.988Z,68064.00
2022-10-22T10:54:45.985Z,63008.00
2022-10-22T10:55:45.973Z,78816.00
2022-10-22T10:56:45.954Z,58272.00
2022-10-22T10:57:45.940Z,66688.00
2022-10-22T10:58:45.930Z,72448.00
2022-10-22T10:59:45.917Z,66816.00
2022-10-22T11:00:45.912Z,56800.00
2022-10-22T11:01:46.022Z,99936.00
2022-10-22T11:02:45.994Z,95744.00
2022-10-22T11:03:45.890Z,75392.00
2022-10-22T11:04:45.868Z,95264.00
2022-10-22T11:05:45.852Z,100288.00
2022-10-22T11:06:45.847Z,71616.00
2022-10-22T11:07:46.045Z,77344.00
2022-10-22T11:08:45.914Z,60224.00
2022-10-22T11:09:45.809Z,49152.00
2022-10-22T11:10:45.857Z,51904.00
2022-10-22T11:11:45.788Z,49472.00
2022-10-22T11:12:45.842Z,50176.00
2022-10-22T11:13:45.778Z,47296.00
2022-10-22T11:14:45.797Z,46496.00
2022-10-22T11:15:45.746Z,70336.00
2022-10-22T11:16:45.824Z,64416.00
2022-10-22T11:17:45.754Z,57888.00
2022-10-22T11:18:45.728Z,45632.00
2022-10-22T11:19:51.598Z,42816.00
2022-10-22T11:20:46.702Z,40640.00
2022-10-22T11:21:45.681Z,41088.00
2022-10-22T11:23:13.271Z,34912.00
2022-10-22T11:23:46.659Z,33920.00
2022-10-22T11:24:45.650Z,52576.00
2022-10-22T11:25:45.646Z,40064.00
2022-10-22T11:26:45.628Z,44128.00
2022-10-22T11:27:45.662Z,40480.00
2022-10-22T11:28:45.605Z,50016.00
2022-10-22T11:29:45.606Z,72160.00
2022-10-22T11:30:45.583Z,47936.00
2022-10-22T11:31:45.573Z,53600.00
2022-10-22T11:32:45.562Z,107584.00
2022-10-22T11:33:45.571Z,109792.00
2022-10-22T11:34:45.541Z,109856.00
2022-10-22T11:35:45.543Z,109248.00
2022-10-22T11:36:45.522Z,109312.00
2022-10-22T11:37:45.507Z,104896.00
2022-10-22T11:38:45.499Z,102336.00
2022-10-22T11:39:45.485Z,104320.00
2022-10-22T11:40:45.484Z,106112.00
2022-10-22T11:41:45.463Z,104672.00
2022-10-22T11:42:45.454Z,103776.00
2022-10-22T11:43:45.441Z,103264.00
2022-10-22T11:44:45.488Z,103104.00
2022-10-22T11:45:45.433Z,101248.00
2022-10-22T11:46:45.412Z,102592.00
2022-10-22T11:47:45.398Z,96224.00
2022-10-22T11:48:45.388Z,89536.00
2022-10-22T11:49:45.393Z,90112.00
2022-10-22T11:50:45.368Z,91040.00
2022-10-22T11:51:45.365Z,95296.00
2022-10-22T11:52:45.345Z,95552.00
2022-10-22T11:53:45.332Z,93792.00
2022-10-22T11:54:45.321Z,100704.00
2022-10-22T11:55:45.309Z,88960.00
2022-10-22T11:56:45.301Z,86016.00
2022-10-22T11:57:45.356Z,113280.00
2022-10-22T11:58:45.282Z,76928.00
2022-10-22T11:59:45.265Z,82048.00
2022-10-22T12:00:45.257Z,41248.00
2022-10-22T12:01:45.257Z,104192.00
2022-10-22T12:02:45.490Z,109280.00
2022-10-22T12:03:45.223Z,104768.00
2022-10-22T12:04:45.303Z,104640.00
2022-10-22T12:05:45.219Z,103040.00
2022-10-22T12:06:45.193Z,113728.00
2022-10-22T12:07:45.199Z,114816.00
2022-10-22T12:08:45.231Z,68032.00
2022-10-22T12:09:45.177Z,29120.00
2022-10-22T12:10:45.147Z,108096.00
2022-10-22T12:11:45.135Z,102944.00
2022-10-22T12:12:45.126Z,94144.00
2022-10-22T12:13:45.126Z,105760.00
2022-10-22T12:14:45.105Z,36800.00
2022-10-22T12:15:45.091Z,28224.00
2022-10-22T12:16:55.763Z,78656.00
2022-10-22T12:17:46.068Z,83520.00
2022-10-22T12:18:45.066Z,99744.00
2022-10-22T12:19:45.057Z,94880.00
2022-10-22T12:20:45.043Z,94112.00
2022-10-22T12:21:45.044Z,95520.00
2022-10-22T12:22:45.018Z,93312.00
2022-10-22T12:23:45.003Z,85984.00
2022-10-22T12:24:45.009Z,37056.00
2022-10-22T12:25:44.982Z,43648.00
2022-10-22T12:26:44.974Z,67776.00
2022-10-22T12:27:45.072Z,27552.00
2022-10-22T12:28:44.949Z,72704.00
2022-10-22T12:29:44.948Z,38976.00
2022-10-22T12:30:44.931Z,81728.00
2022-10-22T12:31:44.916Z,81664.00
2022-10-22T12:32:44.919Z,83008.00
2022-10-22T12:33:44.895Z,83840.00